Time;durP1;ratioP1;P1;durP2;ratioP2;P2;SDS_P1;SDS_P2;PMS_P1;PMS_P2;Temp;Humidity;BMP_temperature;BMP_pressure;BME280_temperature;BME280_humidity;BME280_pressure;Samples;Min_cycle;Max_cycle;Signal;HPM_P1;HPM_P2
2023/04/30 00:00:00;;;;;;;6.60;5.05;;;10.50;99.90;;;;;;4174220;28;20106;-66
2023/04/30 00:02:00;;;;;;;8.70;6.30;;;10.50;99.90;;;;;;4171977;28;20068;-66
2023/04/30 00:04:01;;;;;;;10.95;5.60;;;10.50;99.90;;;;;;4173115;28;20480;-66
2023/04/30 00:06:02;;;;;;;9.18;6.03;;;10.50;99.90;;;;;;4173846;28;20037;-66
2023/04/30 00:08:03;;;;;;;9.05;6.40;;;10.40;99.90;;;;;;4176735;28;20090;-66
2023/04/30 00:10:04;;;;;;;8.68;6.00;;;10.30;99.90;;;;;;4172874;28;20162;-66
2023/04/30 00:12:04;;;;;;;10.30;6.60;;;10.20;99.90;;;;;;4173792;28;20477;-66
2023/04/30 00:14:05;;;;;;;8.23;5.88;;;10.10;99.90;;;;;;4173069;28;20139;-66
2023/04/30 00:16:06;;;;;;;8.63;5.85;;;10.10;99.90;;;;;;4172606;28;20045;-66
2023/04/30 00:18:06;;;;;;;7.80;5.30;;;10.10;99.90;;;;;;4173023;28;20068;-66
2023/04/30 00:20:07;;;;;;;10.30;6.43;;;10.10;99.90;;;;;;4172030;28;20475;-66
2023/04/30 00:22:08;;;;;;;7.80;5.25;;;10.10;99.90;;;;;;4173269;28;20502;-66
2023/04/30 00:24:09;;;;;;;6.68;5.55;;;10.10;99.90;;;;;;4175770;28;20135;-66
2023/04/30 00:26:09;;;;;;;8.68;5.93;;;10.20;99.90;;;;;;4171431;28;20741;-66
2023/04/30 00:28:10;;;;;;;7.35;5.53;;;10.10;99.90;;;;;;4174682;28;20037;-66
2023/04/30 00:30:11;;;;;;;7.03;4.78;;;10.10;99.90;;;;;;4171343;28;20032;-66
2023/04/30 00:32:11;;;;;;;6.80;4.85;;;10.20;99.90;;;;;;4172578;28;20442;-66
2023/04/30 00:34:12;;;;;;;6.95;5.63;;;10.20;99.90;;;;;;4172408;28;20037;-66
2023/04/30 00:36:12;;;;;;;9.23;5.75;;;10.10;99.90;;;;;;4174463;28;20044;-65
2023/04/30 00:38:13;;;;;;;9.40;5.72;;;10.10;99.90;;;;;;4176758;28;20548;-66
2023/04/30 00:40:14;;;;;;;9.02;6.22;;;10.00;99.90;;;;;;4175178;28;20404;-66
2023/04/30 00:42:14;;;;;;;7.60;5.70;;;9.90;99.90;;;;;;4172936;28;20079;-66
2023/04/30 00:44:15;;;;;;;10.57;5.75;;;9.90;99.90;;;;;;4172158;28;20100;-65
2023/04/30 00:46:15;;;;;;;11.35;5.90;;;9.90;99.90;;;;;;4173253;28;20041;-65
2023/04/30 00:48:17;;;;;;;9.25;6.65;;;9.80;99.90;;;;;;4171653;28;20041;-66
2023/04/30 00:50:17;;;;;;;8.05;5.97;;;9.60;99.90;;;;;;4173829;28;20033;-66
2023/04/30 00:52:18;;;;;;;8.73;6.15;;;9.50;99.90;;;;;;4170842;28;20086;-66
2023/04/30 00:54:20;;;;;;;9.25;6.03;;;9.50;99.90;;;;;;4174085;28;20382;-66
2023/04/30 00:56:20;;;;;;;8.13;5.53;;;9.50;99.90;;;;;;4172177;28;20071;-66
2023/04/30 00:58:21;;;;;;;8.98;5.70;;;9.40;99.90;;;;;;4173732;28;20029;-65
2023/04/30 01:00:22;;;;;;;8.27;5.43;;;9.50;99.90;;;;;;4171718;28;20047;-66
2023/04/30 01:02:23;;;;;;;7.57;5.53;;;9.50;99.90;;;;;;4172523;28;20120;-66
2023/04/30 01:04:24;;;;;;;8.32;5.57;;;9.60;99.90;;;;;;4170709;28;20067;-66
2023/04/30 01:06:25;;;;;;;8.15;6.07;;;9.60;99.90;;;;;;4171451;28;20056;-66
2023/04/30 01:08:26;;;;;;;8.45;6.13;;;9.60;99.90;;;;;;4174565;28;20483;-65
2023/04/30 01:10:34;;;;;;;10.13;6.30;;;9.60;99.90;;;;;;4170939;28;21313;-66
2023/04/30 01:13:07;;;;;;;8.52;6.55;;;9.60;99.90;;;;;;4171720;28;20036;-66
2023/04/30 01:15:41;;;;;;;10.75;6.82;;;9.50;99.90;;;;;;4170489;28;20064;-66
2023/04/30 01:17:59;;;;;;;9.10;6.32;;;9.40;99.90;;;;;;4175052;28;20049;-66
2023/04/30 01:20:01;;;;;;;8.77;6.38;;;9.30;99.90;;;;;;4176019;28;20091;-65
2023/04/30 01:22:04;;;;;;;9.80;6.13;;;9.20;99.90;;;;;;4171838;28;20033;-65
2023/04/30 01:24:35;;;;;;;8.25;6.20;;;9.20;99.90;;;;;;4172950;28;20077;-66
2023/04/30 01:27:06;;;;;;;9.02;6.50;;;9.20;99.90;;;;;;4169791;28;20082;-66
2023/04/30 01:29:09;;;;;;;9.38;5.97;;;9.20;99.90;;;;;;4169489;28;20459;-66
2023/04/30 01:31:14;;;;;;;9.25;6.50;;;9.20;99.90;;;;;;4168826;28;20068;-66
2023/04/30 01:33:14;;;;;;;9.45;6.57;;;9.20;99.90;;;;;;4170019;28;20072;-66
2023/04/30 01:35:15;;;;;;;7.55;5.72;;;9.30;99.90;;;;;;4170548;28;20040;-66
2023/04/30 01:37:45;;;;;;;9.35;6.45;;;9.30;99.90;;;;;;4171535;28;20059;-66
2023/04/30 01:39:54;;;;;;;8.07;6.55;;;9.30;99.90;;;;;;4171170;28;20392;-66
2023/04/30 01:42:06;;;;;;;10.00;6.53;;;9.30;99.90;;;;;;4169402;28;20456;-65
2023/04/30 01:44:26;;;;;;;11.48;6.40;;;9.30;99.90;;;;;;4171122;28;20086;-65
2023/04/30 01:46:29;;;;;;;9.18;5.82;;;9.30;99.90;;;;;;4170046;28;20117;-65
2023/04/30 01:48:56;;;;;;;10.00;6.32;;;9.40;99.90;;;;;;4185132;28;20032;-65
2023/04/30 01:51:26;;;;;;;8.60;5.25;;;9.50;99.90;;;;;;4173188;28;20116;-66
2023/04/30 01:53:34;;;;;;;7.28;5.38;;;9.60;99.90;;;;;;4169591;28;20048;-66
2023/04/30 01:55:36;;;;;;;7.10;5.22;;;9.60;99.90;;;;;;4168996;28;20040;-66
2023/04/30 01:57:42;;;;;;;8.65;5.32;;;9.60;99.90;;;;;;4172581;28;20029;-66
2023/04/30 01:59:44;;;;;;;7.50;5.10;;;9.70;99.90;;;;;;4175240;28;20032;-66
2023/04/30 02:01:45;;;;;;;9.73;5.70;;;9.70;99.90;;;;;;4171671;28;20033;-65
2023/04/30 02:03:46;;;;;;;8.77;6.35;;;9.70;99.90;;;;;;4171291;28;20041;-68
2023/04/30 02:05:47;;;;;;;7.55;5.15;;;9.80;99.90;;;;;;4170669;28;20491;-66
2023/04/30 02:07:50;;;;;;;8.10;6.15;;;9.80;99.90;;;;;;4169210;28;20094;-65
2023/04/30 02:09:50;;;;;;;8.15;5.60;;;9.90;99.90;;;;;;4169014;28;20045;-66
2023/04/30 02:11:51;;;;;;;8.90;5.72;;;9.90;99.90;;;;;;4172807;28;20071;-65
2023/04/30 02:13:52;;;;;;;8.10;5.72;;;9.90;99.90;;;;;;4167939;28;20038;-65
2023/04/30 02:15:52;;;;;;;8.63;5.40;;;9.90;99.90;;;;;;4170115;28;20127;-66
2023/04/30 02:17:53;;;;;;;9.85;6.10;;;9.90;99.90;;;;;;4155586;28;20045;-65
2023/04/30 02:19:54;;;;;;;7.05;5.22;;;10.00;99.90;;;;;;4173021;28;20025;-66
2023/04/30 02:21:55;;;;;;;8.27;5.72;;;10.00;99.90;;;;;;4170293;28;20045;-65
2023/04/30 02:23:55;;;;;;;8.90;6.28;;;10.00;99.90;;;;;;4171405;28;20496;-66
2023/04/30 02:25:56;;;;;;;10.13;6.45;;;10.00;99.90;;;;;;4171540;28;20044;-66
2023/04/30 02:27:56;;;;;;;8.52;5.80;;;10.00;99.90;;;;;;4171552;28;20055;-66
2023/04/30 02:29:58;;;;;;;8.02;5.30;;;10.10;99.90;;;;;;4172715;28;20041;-65
2023/04/30 02:31:59;;;;;;;7.75;5.57;;;10.10;99.90;;;;;;4171107;28;20032;-66
2023/04/30 02:34:00;;;;;;;7.15;5.10;;;10.10;99.90;;;;;;4169984;28;20454;-65
2023/04/30 02:36:00;;;;;;;8.85;6.40;;;10.10;99.90;;;;;;4169678;28;20120;-65
2023/04/30 02:38:01;;;;;;;9.90;6.28;;;10.10;99.90;;;;;;4172164;28;20170;-65
2023/04/30 02:40:02;;;;;;;8.10;5.40;;;10.10;99.90;;;;;;4173816;28;20426;-66
2023/04/30 02:42:03;;;;;;;8.50;5.93;;;10.10;99.90;;;;;;4174785;28;20037;-66
2023/04/30 02:44:04;;;;;;;7.85;5.85;;;10.10;99.90;;;;;;4174414;28;20043;-65
2023/04/30 02:46:05;;;;;;;8.43;6.40;;;10.10;99.90;;;;;;4170269;28;20123;-65
2023/04/30 02:48:06;;;;;;;6.93;5.25;;;10.10;99.90;;;;;;4173900;28;20033;-66
2023/04/30 02:50:07;;;;;;;7.38;5.60;;;10.10;99.90;;;;;;4174017;28;20429;-66
2023/04/30 02:52:08;;;;;;;10.27;6.10;;;10.10;99.90;;;;;;4172879;28;20036;-69
2023/04/30 02:54:09;;;;;;;6.72;5.47;;;10.10;99.90;;;;;;4173740;28;20041;-66
2023/04/30 02:56:09;;;;;;;10.27;6.90;;;10.10;99.90;;;;;;4175898;28;20095;-66
2023/04/30 02:58:10;;;;;;;7.40;5.43;;;10.10;99.90;;;;;;4176404;28;20056;-65
2023/04/30 03:00:11;;;;;;;9.02;5.50;;;10.10;99.90;;;;;;4175497;28;20033;-66
2023/04/30 03:02:12;;;;;;;8.85;6.00;;;10.10;99.90;;;;;;4174962;28;20037;-67
2023/04/30 03:04:13;;;;;;;8.10;6.10;;;10.10;99.90;;;;;;4185860;28;20404;-66
2023/04/30 03:06:13;;;;;;;9.32;6.10;;;10.10;99.90;;;;;;4172620;28;20823;-66
2023/04/30 03:08:14;;;;;;;7.32;5.30;;;10.10;99.90;;;;;;4173460;28;20082;-66
2023/04/30 03:10:15;;;;;;;8.02;5.93;;;10.00;99.90;;;;;;4172262;28;20430;-66
2023/04/30 03:12:15;;;;;;;6.93;5.07;;;10.00;99.90;;;;;;4173365;28;20048;-66
2023/04/30 03:14:16;;;;;;;8.30;5.35;;;9.90;99.90;;;;;;4174401;28;20025;-66
2023/04/30 03:16:21;;;;;;;7.28;5.40;;;9.90;99.90;;;;;;4170120;28;20021;-66
2023/04/30 03:18:21;;;;;;;8.70;5.78;;;9.90;99.90;;;;;;4172927;28;20029;-66
2023/04/30 03:20:22;;;;;;;7.88;5.68;;;9.70;99.90;;;;;;4172577;28;20025;-66
2023/04/30 03:22:25;;;;;;;6.40;4.78;;;9.70;99.90;;;;;;4178986;28;20053;-65
2023/04/30 03:24:26;;;;;;;6.30;5.13;;;9.70;99.90;;;;;;4175612;28;20025;-66
2023/04/30 03:26:26;;;;;;;8.15;5.45;;;9.60;99.90;;;;;;4173804;28;20201;-65
2023/04/30 03:28:27;;;;;;;7.45;5.30;;;9.60;99.90;;;;;;4174519;28;20492;-65
2023/04/30 03:30:28;;;;;;;8.18;5.20;;;9.60;99.90;;;;;;4172064;28;20029;-66
2023/04/30 03:32:28;;;;;;;7.35;5.53;;;9.60;99.90;;;;;;4174209;28;20041;-65
2023/04/30 03:34:30;;;;;;;7.53;5.35;;;9.60;99.90;;;;;;4172727;28;20025;-65
2023/04/30 03:36:32;;;;;;;9.50;5.70;;;9.60;99.90;;;;;;4174643;28;20122;-65
2023/04/30 03:38:32;;;;;;;5.85;4.65;;;9.60;99.90;;;;;;4173795;28;20551;-65
2023/04/30 03:40:33;;;;;;;6.82;5.10;;;9.60;99.90;;;;;;4175237;28;20110;-65
2023/04/30 03:42:34;;;;;;;8.70;5.05;;;9.60;99.90;;;;;;4174627;28;20056;-65
2023/04/30 03:44:34;;;;;;;6.63;5.00;;;9.60;99.90;;;;;;4172020;28;20048;-66
2023/04/30 03:46:35;;;;;;;6.55;4.85;;;9.60;99.90;;;;;;4173914;28;20029;-66
2023/04/30 03:48:35;;;;;;;5.97;4.80;;;9.60;99.90;;;;;;4175193;28;20033;-66
2023/04/30 03:50:36;;;;;;;8.95;5.60;;;9.70;99.90;;;;;;4170794;28;20040;-65
2023/04/30 03:52:37;;;;;;;7.32;5.35;;;9.70;99.90;;;;;;4174594;28;20039;-65
2023/04/30 03:54:37;;;;;;;6.60;4.93;;;9.70;99.90;;;;;;4171862;28;20029;-66
2023/04/30 03:56:39;;;;;;;7.32;5.13;;;9.70;99.90;;;;;;4174894;28;20543;-65
2023/04/30 03:58:40;;;;;;;6.05;4.65;;;9.70;99.90;;;;;;4176474;28;20039;-65
2023/04/30 04:00:41;;;;;;;6.15;4.88;;;9.70;99.90;;;;;;4176433;28;20060;-67
2023/04/30 04:02:42;;;;;;;10.20;5.82;;;9.60;99.90;;;;;;4173651;28;20106;-65
2023/04/30 04:04:43;;;;;;;6.95;5.50;;;9.60;99.90;;;;;;4173296;28;20044;-65
2023/04/30 04:06:43;;;;;;;8.23;5.70;;;9.50;99.90;;;;;;4166549;28;20633;-65
2023/04/30 04:08:44;;;;;;;8.07;5.65;;;9.50;99.90;;;;;;4171500;28;20029;-65
2023/04/30 04:10:45;;;;;;;7.75;5.07;;;9.40;99.90;;;;;;4174446;28;20029;-65
2023/04/30 04:12:45;;;;;;;6.72;5.10;;;9.40;99.90;;;;;;4172737;28;20037;-66
2023/04/30 04:14:46;;;;;;;7.13;5.10;;;9.40;99.90;;;;;;4170215;28;20044;-66
2023/04/30 04:16:46;;;;;;;7.10;5.65;;;9.40;99.90;;;;;;4174070;28;20049;-64
2023/04/30 04:18:47;;;;;;;6.45;5.03;;;9.40;99.90;;;;;;4173122;28;20104;-67
2023/04/30 04:20:48;;;;;;;8.35;5.90;;;9.40;99.90;;;;;;4173876;28;20078;-66
2023/04/30 04:22:48;;;;;;;6.88;5.00;;;9.30;99.90;;;;;;4175439;28;20033;-66
2023/04/30 04:24:50;;;;;;;6.63;5.45;;;9.40;99.90;;;;;;4170095;28;20440;-66
2023/04/30 04:26:50;;;;;;;6.32;4.80;;;9.40;99.90;;;;;;4174948;28;20041;-65
2023/04/30 04:28:51;;;;;;;8.13;5.55;;;9.40;99.90;;;;;;4173896;28;20102;-67
2023/04/30 04:30:52;;;;;;;7.85;5.40;;;9.40;99.90;;;;;;4171241;28;20033;-68
2023/04/30 04:32:52;;;;;;;7.22;5.03;;;9.40;99.90;;;;;;4176812;28;20083;-65
2023/04/30 04:34:54;;;;;;;6.65;4.95;;;9.40;99.90;;;;;;4173468;28;20037;-66
2023/04/30 04:36:54;;;;;;;7.90;5.50;;;9.40;99.90;;;;;;4170910;28;20032;-66
2023/04/30 04:39:02;;;;;;;7.25;5.32;;;9.40;99.90;;;;;;4173685;28;20082;-66
2023/04/30 04:41:03;;;;;;;7.97;5.78;;;9.40;99.90;;;;;;4174327;28;20033;-66
2023/04/30 04:43:03;;;;;;;6.80;5.32;;;9.40;99.90;;;;;;4173367;28;20377;-65
2023/04/30 04:45:06;;;;;;;6.72;5.05;;;9.40;99.90;;;;;;4169647;28;20041;-66
2023/04/30 04:47:07;;;;;;;6.55;4.75;;;9.40;99.90;;;;;;4176574;28;20067;-66
2023/04/30 04:49:08;;;;;;;7.55;5.53;;;9.30;99.90;;;;;;4173378;28;20491;-65
2023/04/30 04:51:09;;;;;;;7.78;5.05;;;9.30;99.90;;;;;;4170373;28;20038;-66
2023/04/30 04:53:09;;;;;;;8.82;5.72;;;9.30;99.90;;;;;;4171432;28;20053;-65
2023/04/30 04:55:11;;;;;;;7.95;5.40;;;9.30;99.90;;;;;;4171996;28;20444;-67
2023/04/30 04:57:11;;;;;;;6.60;4.95;;;9.30;99.90;;;;;;4172360;28;20041;-65
2023/04/30 04:59:12;;;;;;;8.15;5.43;;;9.40;99.90;;;;;;4168886;28;20491;-65
2023/04/30 05:01:12;;;;;;;7.13;5.50;;;9.40;99.90;;;;;;4171513;28;20640;-66
2023/04/30 05:03:13;;;;;;;5.70;4.40;;;9.50;99.90;;;;;;4173885;28;20040;-65
2023/04/30 05:05:14;;;;;;;7.35;5.35;;;9.50;99.90;;;;;;4170337;28;20037;-66
2023/04/30 05:07:16;;;;;;;8.20;6.18;;;9.50;99.90;;;;;;4174262;28;20123;-65
2023/04/30 05:09:17;;;;;;;9.88;5.80;;;9.50;99.90;;;;;;4169488;28;21052;-66
2023/04/30 05:11:17;;;;;;;9.02;5.93;;;9.50;99.90;;;;;;4172102;28;20044;-66
2023/04/30 05:13:18;;;;;;;8.93;5.82;;;9.60;99.90;;;;;;4173828;28;20033;-66
2023/04/30 05:15:19;;;;;;;6.05;4.78;;;9.60;99.90;;;;;;4169842;28;20044;-68
2023/04/30 05:17:19;;;;;;;5.88;4.50;;;9.60;99.90;;;;;;4169408;28;20071;-65
2023/04/30 05:19:21;;;;;;;8.13;5.05;;;9.60;99.90;;;;;;4167898;28;20083;-65
2023/04/30 05:21:22;;;;;;;6.13;4.80;;;9.60;99.90;;;;;;4173033;28;20044;-68
2023/04/30 05:23:22;;;;;;;7.53;4.78;;;9.70;99.90;;;;;;4171619;28;20399;-68
2023/04/30 05:25:23;;;;;;;6.95;4.88;;;9.70;99.90;;;;;;4171720;28;20033;-68
2023/04/30 05:27:23;;;;;;;7.57;5.40;;;9.70;99.90;;;;;;4174538;28;20053;-67
2023/04/30 05:29:24;;;;;;;7.57;5.55;;;9.70;99.90;;;;;;4179897;28;20040;-67
2023/04/30 05:31:25;;;;;;;7.65;5.72;;;9.80;99.90;;;;;;4174284;28;20103;-68
2023/04/30 05:33:26;;;;;;;9.15;5.50;;;9.80;99.90;;;;;;4174981;28;20045;-65
2023/04/30 05:35:26;;;;;;;8.25;5.40;;;9.90;99.90;;;;;;4170515;28;20025;-67
2023/04/30 05:37:28;;;;;;;10.30;5.80;;;9.80;99.90;;;;;;4171527;28;20059;-65
2023/04/30 05:39:29;;;;;;;8.13;5.60;;;9.90;99.90;;;;;;4170021;28;20296;-66
2023/04/30 05:41:30;;;;;;;7.82;5.78;;;9.90;99.90;;;;;;4168917;28;20037;-65
2023/04/30 05:43:31;;;;;;;9.93;5.82;;;9.90;99.90;;;;;;4172355;28;20036;-65
2023/04/30 05:45:32;;;;;;;9.35;6.50;;;9.80;99.90;;;;;;4169543;28;20041;-65
2023/04/30 05:47:33;;;;;;;7.30;5.93;;;9.80;99.90;;;;;;4172143;28;20408;-65
2023/04/30 05:49:33;;;;;;;9.38;6.45;;;9.80;99.90;;;;;;4169203;28;20109;-66
2023/04/30 05:51:34;;;;;;;11.52;6.28;;;9.80;99.90;;;;;;4167443;28;20389;-68
2023/04/30 05:53:35;;;;;;;12.60;7.43;;;9.90;99.90;;;;;;4170607;28;20594;-67
2023/04/30 05:55:35;;;;;;;9.65;6.50;;;9.70;99.90;;;;;;4168835;28;20131;-66
2023/04/30 05:57:36;;;;;;;10.45;6.28;;;9.70;99.90;;;;;;4171666;28;20076;-65
2023/04/30 05:59:37;;;;;;;10.95;7.18;;;9.70;99.90;;;;;;4169300;28;20041;-66
2023/04/30 06:01:37;;;;;;;10.23;7.00;;;9.70;99.90;;;;;;4168039;28;20486;-66
2023/04/30 06:03:38;;;;;;;13.02;8.15;;;9.70;99.90;;;;;;4172265;28;20041;-66
2023/04/30 06:05:40;;;;;;;13.23;7.90;;;9.60;99.90;;;;;;4172380;28;20029;-66
2023/04/30 06:07:40;;;;;;;14.35;6.93;;;9.60;99.90;;;;;;4171463;28;20032;-65
2023/04/30 06:09:41;;;;;;;10.23;7.00;;;9.60;99.90;;;;;;4172977;28;20029;-66
2023/04/30 06:11:44;;;;;;;11.30;7.53;;;9.60;99.90;;;;;;4170226;28;20809;-66
2023/04/30 06:13:46;;;;;;;11.38;7.53;;;9.70;99.90;;;;;;4170194;28;20115;-65
2023/04/30 06:15:47;;;;;;;;;;;9.70;99.90;;;;;;4167782;28;20142;-66
2023/04/30 06:17:48;;;;;;;13.52;7.80;;;9.80;99.90;;;;;;4173208;28;19936;-66
2023/04/30 06:19:48;;;;;;;12.15;8.45;;;9.80;99.90;;;;;;4172987;28;20052;-66
2023/04/30 06:21:49;;;;;;;12.27;7.35;;;9.80;99.90;;;;;;4176269;28;20028;-65
2023/04/30 06:23:50;;;;;;;16.25;9.50;;;9.90;99.90;;;;;;4182922;28;20033;-65
2023/04/30 06:25:50;;;;;;;15.60;8.30;;;10.00;99.90;;;;;;4176548;28;20549;-66
2023/04/30 06:27:52;;;;;;;15.63;8.32;;;10.10;99.90;;;;;;4176271;28;20035;-65
2023/04/30 06:29:54;;;;;;;12.18;8.55;;;10.20;99.90;;;;;;4175793;28;20066;-65
2023/04/30 06:31:54;;;;;;;10.57;7.18;;;10.40;99.90;;;;;;4175318;28;20026;-65
2023/04/30 06:33:55;;;;;;;9.38;6.22;;;10.70;99.90;;;;;;4185005;28;20163;-65
2023/04/30 06:35:55;;;;;;;11.45;7.75;;;11.20;99.90;;;;;;4172754;28;20095;-65
2023/04/30 06:37:56;;;;;;;11.68;7.20;;;11.50;99.90;;;;;;4175120;28;20083;-66
2023/04/30 06:39:56;;;;;;;11.43;6.60;;;11.90;99.90;;;;;;4174419;28;20519;-65
2023/04/30 06:41:57;;;;;;;10.70;7.15;;;12.40;99.90;;;;;;4174460;28;20495;-65
2023/04/30 06:43:58;;;;;;;9.52;6.75;;;12.80;99.90;;;;;;4176745;28;20025;-66
2023/04/30 06:45:58;;;;;;;10.02;7.25;;;13.00;99.90;;;;;;4176273;28;20587;-67
2023/04/30 06:47:59;;;;;;;9.60;6.20;;;13.00;99.90;;;;;;4173675;28;20026;-66
2023/04/30 06:50:00;;;;;;;10.95;6.88;;;13.20;99.90;;;;;;4175930;28;20040;-66
2023/04/30 06:52:01;;;;;;;8.48;6.25;;;13.60;99.90;;;;;;4175632;28;20214;-65
2023/04/30 06:54:02;;;;;;;10.05;5.85;;;13.80;99.90;;;;;;4175810;28;20058;-66
2023/04/30 06:56:03;;;;;;;10.27;6.28;;;14.10;99.90;;;;;;4154641;28;20021;-66
2023/04/30 06:58:07;;;;;;;11.93;6.45;;;14.40;99.90;;;;;;4176164;28;20068;-66
2023/04/30 07:00:08;;;;;;;8.80;5.80;;;14.50;99.90;;;;;;4172598;28;20046;-66
2023/04/30 07:02:08;;;;;;;9.20;6.13;;;14.70;99.90;;;;;;4170818;28;20036;-66
2023/04/30 07:04:09;;;;;;;7.85;5.55;;;15.00;99.90;;;;;;4176254;28;20041;-66
2023/04/30 07:06:09;;;;;;;7.68;5.22;;;15.20;99.90;;;;;;4177703;28;20325;-66
2023/04/30 07:08:11;;;;;;;7.28;5.82;;;15.40;99.90;;;;;;4173844;28;21265;-67
2023/04/30 07:10:12;;;;;;;10.20;6.25;;;15.50;99.90;;;;;;4173079;28;20029;-66
2023/04/30 07:12:15;;;;;;;9.02;5.63;;;15.60;99.90;;;;;;4170507;28;20029;-66
2023/04/30 07:14:16;;;;;;;6.88;5.35;;;15.60;99.90;;;;;;4172994;28;20515;-66
2023/04/30 07:16:17;;;;;;;6.82;5.25;;;15.80;99.90;;;;;;4174812;28;20029;-65
2023/04/30 07:18:18;;;;;;;7.07;5.30;;;15.80;99.90;;;;;;4173017;28;20036;-66
2023/04/30 07:20:18;;;;;;;6.50;4.55;;;15.90;99.90;;;;;;4170535;28;20043;-66
2023/04/30 07:22:19;;;;;;;9.63;6.15;;;16.00;99.90;;;;;;4180266;28;20416;-66
2023/04/30 07:24:20;;;;;;;10.93;6.90;;;15.70;99.90;;;;;;4169160;28;20033;-66
2023/04/30 07:26:23;;;;;;;9.40;5.60;;;15.40;99.90;;;;;;4163073;28;20439;-66
2023/04/30 07:28:24;;;;;;;8.77;6.00;;;15.50;99.90;;;;;;4189940;28;20075;-66
2023/04/30 07:30:25;;;;;;;11.82;6.80;;;15.50;99.90;;;;;;4169962;28;20041;-66
2023/04/30 07:32:25;;;;;;;11.75;7.03;;;15.30;99.90;;;;;;4171659;28;20059;-67
2023/04/30 07:34:26;;;;;;;8.43;6.43;;;15.30;99.90;;;;;;4175179;28;20025;-66
2023/04/30 07:36:27;;;;;;;9.77;5.65;;;15.40;99.90;;;;;;4174425;28;20061;-65
2023/04/30 07:38:28;;;;;;;10.63;6.55;;;15.50;99.90;;;;;;4172671;28;20044;-67
2023/04/30 07:40:28;;;;;;;12.85;8.25;;;15.50;99.90;;;;;;4172268;28;20381;-65
2023/04/30 07:42:29;;;;;;;10.52;7.03;;;15.40;99.90;;;;;;4166027;28;20119;-66
2023/04/30 07:44:30;;;;;;;11.73;6.88;;;15.50;99.90;;;;;;4170587;28;20389;-66
2023/04/30 07:46:31;;;;;;;13.70;7.70;;;15.70;99.90;;;;;;4174321;28;20033;-67
2023/04/30 07:48:32;;;;;;;11.45;7.45;;;15.40;99.90;;;;;;4176939;28;20036;-67
2023/04/30 07:50:32;;;;;;;12.25;6.38;;;15.30;99.90;;;;;;4175773;28;20045;-66
2023/04/30 07:52:33;;;;;;;11.15;7.55;;;15.60;99.90;;;;;;4174925;28;20035;-66
2023/04/30 07:54:35;;;;;;;10.07;6.50;;;15.40;99.90;;;;;;4175770;28;20036;-66
2023/04/30 07:56:36;;;;;;;7.57;5.78;;;15.60;99.90;;;;;;4171631;28;20106;-66
2023/04/30 07:58:36;;;;;;;7.65;5.93;;;15.80;99.90;;;;;;4173585;28;20380;-66
2023/04/30 08:00:37;;;;;;;11.75;7.70;;;15.90;99.90;;;;;;4171998;28;20041;-66
2023/04/30 08:02:37;;;;;;;10.95;7.00;;;15.70;99.90;;;;;;4172650;28;20056;-66
2023/04/30 08:04:38;;;;;;;7.30;5.50;;;15.70;99.90;;;;;;4175401;28;20037;-66
2023/04/30 08:06:39;;;;;;;10.93;7.22;;;15.90;99.90;;;;;;4172523;28;20044;-66
2023/04/30 08:08:39;;;;;;;8.02;6.20;;;15.80;99.90;;;;;;4172915;28;20583;-66
2023/04/30 08:10:40;;;;;;;8.75;6.65;;;15.70;99.90;;;;;;4175406;28;20109;-66
2023/04/30 08:12:41;;;;;;;9.52;6.25;;;15.60;99.90;;;;;;4171473;28;20044;-66
2023/04/30 08:14:41;;;;;;;9.13;5.90;;;15.50;99.90;;;;;;4172660;28;20379;-67
2023/04/30 08:16:42;;;;;;;7.82;5.05;;;15.70;99.90;;;;;;4176909;28;20037;-68
2023/04/30 08:18:45;;;;;;;7.85;5.63;;;15.70;99.90;;;;;;4178254;28;20082;-66
2023/04/30 08:20:45;;;;;;;9.40;6.55;;;15.90;99.90;;;;;;4173824;28;20036;-66
2023/04/30 08:22:46;;;;;;;8.77;5.90;;;16.00;99.90;;;;;;4173253;28;20071;-66
2023/04/30 08:24:46;;;;;;;6.80;5.25;;;16.00;99.90;;;;;;4173605;28;20033;-66
2023/04/30 08:26:47;;;;;;;8.88;6.43;;;16.10;99.90;;;;;;4172692;28;20082;-66
2023/04/30 08:28:48;;;;;;;9.07;6.40;;;16.10;99.90;;;;;;4174633;28;20067;-66
2023/04/30 08:30:48;;;;;;;7.72;5.45;;;16.00;99.90;;;;;;4153819;28;20075;-67
2023/04/30 08:32:49;;;;;;;6.50;5.10;;;16.00;99.90;;;;;;4173968;28;20065;-67
2023/04/30 08:34:50;;;;;;;7.88;5.72;;;16.20;99.90;;;;;;4171100;28;20108;-66
2023/04/30 08:36:51;;;;;;;7.53;4.95;;;16.20;99.90;;;;;;4174577;28;20037;-66
2023/04/30 08:38:51;;;;;;;6.78;4.85;;;16.40;99.90;;;;;;4170310;28;20047;-66
2023/04/30 08:41:10;;;;;;;8.07;5.35;;;16.60;99.90;;;;;;4174476;28;20037;-67
2023/04/30 08:43:13;;;;;;;10.57;6.35;;;16.60;99.90;;;;;;4171916;28;20040;-67
2023/04/30 08:45:15;;;;;;;;;;;16.70;99.90;;;;;;4173843;28;20044;-66
2023/04/30 08:47:16;;;;;;;7.97;5.20;;;16.70;99.90;;;;;;4170419;28;20331;-67
2023/04/30 08:49:17;;;;;;;8.73;5.27;;;16.80;99.90;;;;;;4174254;28;20392;-66
2023/04/30 08:51:18;;;;;;;7.60;4.85;;;17.00;99.90;;;;;;4172950;28;20041;-66
2023/04/30 08:53:20;;;;;;;7.38;5.53;;;17.10;99.90;;;;;;4174166;28;20147;-67
2023/04/30 08:55:21;;;;;;;9.93;6.15;;;17.20;99.90;;;;;;4170674;28;20051;-67
2023/04/30 08:57:21;;;;;;;7.43;5.85;;;17.30;99.90;;;;;;4175928;28;20048;-67
2023/04/30 08:59:22;;;;;;;8.15;5.50;;;17.40;99.90;;;;;;4173487;28;20090;-66
2023/04/30 09:01:24;;;;;;;7.55;5.28;;;17.50;99.90;;;;;;4171390;28;20510;-67
2023/04/30 09:03:25;;;;;;;7.72;5.22;;;17.60;99.90;;;;;;4174088;28;20044;-67
2023/04/30 09:05:25;;;;;;;7.53;5.53;;;17.70;99.90;;;;;;4171117;28;20060;-67
2023/04/30 09:07:27;;;;;;;10.43;5.85;;;17.70;99.90;;;;;;4171541;28;20717;-67
2023/04/30 09:09:29;;;;;;;14.88;7.53;;;17.70;99.90;;;;;;4170718;28;20025;-67
2023/04/30 09:11:30;;;;;;;10.97;6.40;;;17.40;99.90;;;;;;4173041;28;20025;-67
2023/04/30 09:13:40;;;;;;;9.43;4.90;;;17.20;99.90;;;;;;4172695;28;20632;-68
2023/04/30 09:15:41;;;;;;;10.00;6.30;;;17.40;99.90;;;;;;4171428;28;20112;-67
2023/04/30 09:17:41;;;;;;;9.52;5.82;;;17.30;99.90;;;;;;4173306;28;20052;-67
2023/04/30 09:19:42;;;;;;;9.48;5.40;;;17.50;99.90;;;;;;4174727;28;20174;-67
2023/04/30 09:21:42;;;;;;;8.40;5.22;;;17.50;99.90;;;;;;4172748;28;20036;-67
2023/04/30 09:23:54;;;;;;;7.13;4.60;;;17.50;99.90;;;;;;4173152;28;20460;-66
2023/04/30 09:25:55;;;;;;;8.25;6.00;;;17.60;99.90;;;;;;4169710;28;20064;-66
2023/04/30 09:28:12;;;;;;;9.35;5.50;;;17.60;99.90;;;;;;4172328;28;20056;-66
2023/04/30 09:30:30;;;;;;;6.90;4.68;;;17.70;99.90;;;;;;4169725;28;20037;-66
2023/04/30 09:32:31;;;;;;;7.88;4.60;;;17.80;99.90;;;;;;4172973;28;20396;-66
2023/04/30 09:34:34;;;;;;;8.75;5.47;;;18.00;99.90;;;;;;4172414;28;20036;-67
2023/04/30 09:36:36;;;;;;;8.68;5.13;;;18.10;99.90;;;;;;4169463;28;20498;-66
2023/04/30 09:38:36;;;;;;;6.85;5.13;;;18.10;99.90;;;;;;4172427;28;20108;-67
2023/04/30 09:40:41;;;;;;;7.60;4.30;;;18.10;99.90;;;;;;4168195;28;20626;-66
2023/04/30 09:42:59;;;;;;;5.40;4.13;;;18.20;99.90;;;;;;4169642;28;20048;-66
2023/04/30 09:45:00;;;;;;;7.15;4.75;;;18.30;99.90;;;;;;4171246;28;20127;-66
2023/04/30 09:47:02;;;;;;;7.28;4.65;;;18.30;99.90;;;;;;4173952;28;20068;-66
2023/04/30 09:49:05;;;;;;;6.57;4.88;;;18.40;99.90;;;;;;4173288;28;20365;-66
2023/04/30 09:51:06;;;;;;;11.65;5.13;;;18.50;99.90;;;;;;4171509;28;20034;-66
2023/04/30 09:53:09;;;;;;;7.75;4.90;;;18.40;99.90;;;;;;4173556;28;20522;-66
2023/04/30 09:55:10;;;;;;;6.47;4.38;;;18.40;99.90;;;;;;4167713;28;20072;-66
2023/04/30 09:57:13;;;;;;;7.25;4.10;;;18.40;99.90;;;;;;4173791;28;20037;-66
2023/04/30 09:59:16;;;;;;;9.48;4.88;;;18.50;99.90;;;;;;4169312;28;20567;-66
2023/04/30 10:01:17;;;;;;;5.25;3.80;;;18.40;99.90;;;;;;4171671;28;20033;-67
2023/04/30 10:03:21;;;;;;;4.47;3.08;;;18.60;99.90;;;;;;4173157;28;20513;-65
2023/04/30 10:05:21;;;;;;;6.22;3.42;;;18.60;99.90;;;;;;4169898;28;20044;-66
2023/04/30 10:07:28;;;;;;;5.88;3.40;;;18.80;99.90;;;;;;4170859;28;20037;-66
2023/04/30 10:09:37;;;;;;;4.93;3.15;;;18.80;99.90;;;;;;4172955;28;20199;-66
2023/04/30 10:11:41;;;;;;;5.32;2.85;;;18.90;99.90;;;;;;4170765;28;20041;-66
2023/04/30 10:13:53;;;;;;;5.85;2.90;;;19.00;99.90;;;;;;4172245;28;20112;-66
2023/04/30 10:15:58;;;;;;;7.97;4.53;;;19.20;99.90;;;;;;4167153;28;20041;-66
2023/04/30 10:18:05;;;;;;;5.28;3.50;;;19.30;99.90;;;;;;4168633;28;20061;-66
2023/04/30 10:20:10;;;;;;;3.95;3.35;;;19.40;99.90;;;;;;4169025;28;20088;-66
2023/04/30 10:22:11;;;;;;;5.03;2.92;;;19.20;99.90;;;;;;4173128;28;20037;-66
2023/04/30 10:24:19;;;;;;;5.05;3.10;;;19.30;99.90;;;;;;4170710;28;20040;-66
2023/04/30 10:26:19;;;;;;;4.18;2.40;;;19.50;99.90;;;;;;4174031;28;20545;-66
2023/04/30 10:28:20;;;;;;;3.50;2.80;;;19.50;99.90;;;;;;4175648;28;20036;-66
2023/04/30 10:30:22;;;;;;;3.75;2.80;;;19.50;99.90;;;;;;4169948;28;20124;-66
2023/04/30 10:32:24;;;;;;;5.13;3.22;;;19.40;99.90;;;;;;4171962;28;20403;-66
2023/04/30 10:34:31;;;;;;;9.32;3.40;;;19.00;99.90;;;;;;4170635;28;20052;-66
2023/04/30 10:36:55;;;;;;;5.20;3.47;;;18.90;99.90;;;;;;4167582;28;20472;-66
2023/04/30 10:38:58;;;;;;;5.30;3.42;;;18.50;99.90;;;;;;4172023;28;20079;-66